Time;durP1;ratioP1;P1;durP2;ratioP2;P2;SDS_P1;SDS_P2;PMS_P1;PMS_P2;Temp;Humidity;BMP_temperature;BMP_pressure;BME280_temperature;BME280_humidity;BME280_pressure;Samples;Min_cycle;Max_cycle;Signal;HPM_P1;HPM_P2
2022/07/13 00:02:10;;;;;;;3.00;1.60;;;;;;;19.53;65.55;101480.22;6001381;28;20122;-64
2022/07/13 00:05:06;;;;;;;4.00;2.00;;;;;;;19.31;66.10;101488.34;6005991;28;20034;-67
2022/07/13 00:08:01;;;;;;;3.00;1.80;;;;;;;19.21;66.23;101483.25;5999335;28;20046;-67
2022/07/13 00:10:56;;;;;;;3.23;1.90;;;;;;;19.40;66.92;101471.97;6003838;28;20504;-65
2022/07/13 00:13:52;;;;;;;6.67;1.73;;;;;;;19.47;65.96;101475.59;6006569;28;20030;-65
2022/07/13 00:16:47;;;;;;;4.23;1.90;;;;;;;19.32;66.52;101493.53;6000718;28;20101;-67
2022/07/13 00:19:42;;;;;;;4.33;2.40;;;;;;;19.31;66.27;101493.72;6004779;28;20030;-66
2022/07/13 00:22:39;;;;;;;4.60;1.87;;;;;;;19.13;67.09;101495.94;6005625;28;20478;-65
2022/07/13 00:25:35;;;;;;;4.55;1.98;;;;;;;18.92;68.03;101494.75;5996392;28;20031;-67
2022/07/13 00:28:30;;;;;;;3.87;2.13;;;;;;;18.77;68.70;101488.50;5996517;28;20396;-66
2022/07/13 00:31:25;;;;;;;2.90;1.57;;;;;;;18.58;68.82;101490.84;6005423;28;20123;-67
2022/07/13 00:34:21;;;;;;;4.00;1.70;;;;;;;18.47;69.30;101493.91;6004164;28;20034;-67
2022/07/13 00:37:16;;;;;;;3.53;1.80;;;;;;;18.27;70.25;101483.63;6002950;28;20027;-67
2022/07/13 00:40:12;;;;;;;2.70;1.60;;;;;;;18.27;70.96;101494.34;6002944;28;20290;-66
2022/07/13 00:43:07;;;;;;;2.72;1.60;;;;;;;18.51;69.67;101479.94;6003893;28;20042;-66
2022/07/13 00:46:02;;;;;;;2.90;1.80;;;;;;;18.53;69.29;101485.16;6004876;28;20043;-67
2022/07/13 00:48:58;;;;;;;2.80;1.60;;;;;;;18.58;68.98;101470.19;5992515;28;20483;-66
2022/07/13 00:51:54;;;;;;;2.85;1.65;;;;;;;18.65;69.34;101468.44;6004850;28;20544;-67
2022/07/13 00:54:49;;;;;;;4.78;1.60;;;;;;;18.83;67.79;101471.63;6003052;28;20047;-68
2022/07/13 00:57:44;;;;;;;8.13;1.45;;;;;;;19.08;66.34;101479.50;5993019;28;20039;-66
2022/07/13 01:00:40;;;;;;;2.17;1.45;;;;;;;19.19;66.36;101458.38;6004676;28;20105;-67
2022/07/13 01:03:35;;;;;;;2.15;1.20;;;;;;;19.24;66.23;101471.28;5998455;28;20475;-66
2022/07/13 01:06:31;;;;;;;2.50;1.40;;;;;;;19.12;65.84;101462.81;5999998;28;20051;-64
2022/07/13 01:09:26;;;;;;;2.50;1.50;;;;;;;19.10;65.34;101442.50;5992209;28;20030;-67
2022/07/13 01:12:21;;;;;;;3.67;1.50;;;;;;;18.89;66.24;101427.91;6002205;28;20467;-67
2022/07/13 01:15:17;;;;;;;2.77;1.50;;;;;;;18.81;66.35;101422.59;5999425;28;20282;-68
2022/07/13 01:18:12;;;;;;;2.73;1.60;;;;;;;18.87;66.18;101415.66;5995819;28;20274;-65
2022/07/13 01:21:08;;;;;;;3.83;1.50;;;;;;;18.97;65.89;101417.06;6003449;28;20039;-68
2022/07/13 01:24:04;;;;;;;3.13;1.42;;;;;;;19.13;65.90;101409.88;6003781;28;20104;-65
2022/07/13 01:27:00;;;;;;;3.35;1.40;;;;;;;19.24;66.28;101422.88;5997696;28;20024;-65
2022/07/13 01:29:55;;;;;;;2.90;1.50;;;;;;;19.28;65.38;101403.47;6001171;28;20046;-65
2022/07/13 01:32:51;;;;;;;3.83;1.43;;;;;;;19.23;64.85;101402.38;6002351;28;20042;-67
2022/07/13 01:35:47;;;;;;;2.80;1.70;;;;;;;19.22;65.49;101398.00;5994940;28;20365;-67
2022/07/13 01:38:42;;;;;;;2.50;1.30;;;;;;;19.24;64.96;101399.47;5996922;28;20046;-67
2022/07/13 01:41:37;;;;;;;2.20;1.23;;;;;;;19.24;65.93;101417.50;6000859;28;20041;-65
2022/07/13 01:44:33;;;;;;;3.17;1.47;;;;;;;19.14;65.73;101400.78;5989632;28;20035;-67
2022/07/13 01:47:28;;;;;;;2.67;1.50;;;;;;;19.11;66.41;101395.75;5997587;28;20023;-68
2022/07/13 01:50:24;;;;;;;3.63;1.30;;;;;;;19.30;66.16;101400.59;5992366;28;20043;-65
2022/07/13 01:53:19;;;;;;;5.53;1.48;;;;;;;19.34;66.70;101400.06;6000597;28;20042;-67
2022/07/13 01:56:15;;;;;;;2.27;1.20;;;;;;;19.34;66.20;101401.91;6002334;28;20035;-66
2022/07/13 01:59:10;;;;;;;4.53;1.40;;;;;;;19.10;66.55;101407.56;6002348;28;20097;-65
2022/07/13 02:02:05;;;;;;;4.10;1.10;;;;;;;18.82;67.62;101400.09;6001777;28;20456;-65
2022/07/13 02:05:01;;;;;;;2.93;1.20;;;;;;;18.78;68.28;101417.59;5998102;28;20030;-65
2022/07/13 02:07:56;;;;;;;4.33;1.50;;;;;;;18.79;67.92;101405.00;5975620;28;20104;-65
2022/07/13 02:10:51;;;;;;;2.60;1.37;;;;;;;18.61;68.10;101413.41;5999147;28;20761;-66
2022/07/13 02:13:47;;;;;;;2.97;1.50;;;;;;;18.74;68.35;101420.84;6000782;28;20097;-66
2022/07/13 02:16:42;;;;;;;2.50;1.38;;;;;;;18.65;68.09;101420.06;5995012;28;20047;-65
2022/07/13 02:19:37;;;;;;;1.77;1.27;;;;;;;18.61;68.47;101405.34;6002014;28;20057;-65
2022/07/13 02:22:40;;;;;;;2.97;1.30;;;;;;;18.78;68.15;101401.47;5995670;28;20026;-65
2022/07/13 02:25:37;;;;;;;1.60;1.10;;;;;;;18.93;67.33;101410.41;5986098;28;20070;-65
2022/07/13 02:28:32;;;;;;;3.70;1.45;;;;;;;18.69;68.01;101402.59;6000469;28;20118;-67
2022/07/13 02:31:28;;;;;;;2.43;1.20;;;;;;;18.72;68.99;101402.22;5995366;28;20037;-66
2022/07/13 02:34:27;;;;;;;2.27;1.40;;;;;;;18.68;69.17;101383.94;6001851;28;20284;-67
2022/07/13 02:37:22;;;;;;;2.53;1.50;;;;;;;18.80;68.45;101393.25;5997375;28;20039;-65
2022/07/13 02:40:17;;;;;;;5.53;1.10;;;;;;;18.73;68.90;101390.44;6000046;28;20566;-67
2022/07/13 02:43:13;;;;;;;2.70;1.27;;;;;;;18.52;68.82;101367.97;5999705;28;20031;-67
2022/07/13 02:46:08;;;;;;;1.60;1.13;;;;;;;18.55;69.65;101384.56;5998026;28;20406;-65
2022/07/13 02:49:03;;;;;;;1.90;1.20;;;;;;;18.45;68.97;101368.66;6002660;28;20121;-66
2022/07/13 02:51:58;;;;;;;2.23;1.00;;;;;;;18.49;69.02;101371.84;5988570;28;20031;-65
2022/07/13 02:54:54;;;;;;;1.97;1.30;;;;;;;18.53;69.08;101369.66;5996636;28;20531;-66
2022/07/13 02:57:49;;;;;;;2.00;1.20;;;;;;;18.46;68.70;101369.50;5991736;28;20051;-66
2022/07/13 03:00:44;;;;;;;2.30;1.20;;;;;;;18.57;68.26;101370.94;5997859;28;20029;-66
2022/07/13 03:03:40;;;;;;;3.07;1.20;;;;;;;18.57;69.07;101371.78;5995078;28;20038;-64
2022/07/13 03:06:35;;;;;;;2.53;1.00;;;;;;;18.57;69.08;101371.78;6000525;28;20514;-66
2022/07/13 03:09:30;;;;;;;2.20;1.40;;;;;;;18.49;68.72;101365.63;5999255;28;20278;-65
2022/07/13 03:12:26;;;;;;;2.30;1.50;;;;;;;18.48;69.06;101370.16;5991516;28;20026;-65
2022/07/13 03:15:21;;;;;;;3.22;1.38;;;;;;;18.57;68.97;101361.03;5999066;28;20138;-66
2022/07/13 03:18:16;;;;;;;7.60;1.67;;;;;;;18.44;69.16;101350.88;6000530;28;20097;-64
2022/07/13 03:21:12;;;;;;;1.90;1.07;;;;;;;18.59;68.65;101359.00;5997883;28;20368;-65
2022/07/13 03:24:07;;;;;;;3.10;1.20;;;;;;;18.60;68.76;101354.47;6001391;28;20035;-65
2022/07/13 03:27:03;;;;;;;1.67;1.05;;;;;;;18.73;68.40;101360.03;5995957;28;20080;-64
2022/07/13 03:29:58;;;;;;;1.60;1.00;;;;;;;18.61;68.97;101354.28;6001157;28;20031;-63
2022/07/13 03:32:53;;;;;;;2.55;1.00;;;;;;;18.75;68.05;101364.22;5954997;28;1304020;-66
2022/07/13 03:35:48;;;;;;;2.93;1.20;;;;;;;18.70;68.32;101361.25;5997419;28;20055;-66
2022/07/13 03:38:44;;;;;;;1.63;1.10;;;;;;;18.78;68.15;101363.03;5994513;28;20039;-66
2022/07/13 03:41:39;;;;;;;2.33;1.20;;;;;;;18.75;68.08;101361.53;6000158;28;20023;-63
2022/07/13 03:44:34;;;;;;;2.72;1.20;;;;;;;18.78;68.50;101358.47;6002165;28;20050;-65
2022/07/13 03:47:30;;;;;;;2.23;1.20;;;;;;;18.81;67.83;101362.63;6001034;28;20085;-64
2022/07/13 03:50:25;;;;;;;2.20;1.10;;;;;;;18.72;67.73;101353.84;6001029;28;20096;-65
2022/07/13 03:53:20;;;;;;;3.00;1.30;;;;;;;18.69;67.34;101335.41;6000229;28;20043;-66
2022/07/13 03:56:16;;;;;;;2.00;1.00;;;;;;;18.81;67.16;101351.91;5999987;28;20026;-64
2022/07/13 03:59:11;;;;;;;2.77;1.20;;;;;;;18.78;67.08;101350.41;5997466;28;20034;-66
2022/07/13 04:02:06;;;;;;;1.73;1.13;;;;;;;18.80;67.27;101337.66;5999805;28;20493;-65
2022/07/13 04:05:02;;;;;;;1.67;1.00;;;;;;;18.95;67.04;101333.09;5991031;28;20035;-66
2022/07/13 04:07:57;;;;;;;2.38;1.10;;;;;;;19.09;66.51;101341.34;5984695;28;20062;-65
2022/07/13 04:10:52;;;;;;;3.07;1.00;;;;;;;19.27;67.52;101329.19;5988859;28;20070;-64
2022/07/13 04:13:47;;;;;;;1.47;1.00;;;;;;;19.14;67.46;101326.31;6001098;28;20049;-65
2022/07/13 04:16:43;;;;;;;2.80;0.93;;;;;;;19.11;67.08;101320.47;6001743;28;20475;-67
2022/07/13 04:19:38;;;;;;;1.30;1.00;;;;;;;19.20;66.96;101317.50;6001170;28;20037;-63
2022/07/13 04:22:33;;;;;;;5.17;1.90;;;;;;;19.27;66.14;101310.34;5988910;28;20034;-64
2022/07/13 04:25:29;;;;;;;2.83;1.10;;;;;;;19.31;66.02;101305.44;6001009;28;20105;-65
2022/07/13 04:28:24;;;;;;;3.73;1.10;;;;;;;19.32;65.98;101307.13;6000755;28;20064;-64
2022/07/13 04:31:20;;;;;;;1.42;0.93;;;;;;;19.30;65.90;101307.28;6010676;28;20317;-65
2022/07/13 04:34:15;;;;;;;2.13;1.13;;;;;;;19.35;65.63;101309.44;6015569;28;20047;-65
2022/07/13 04:37:10;;;;;;;2.03;1.20;;;;;;;19.40;65.67;101307.03;6013669;28;20434;-66
2022/07/13 04:40:06;;;;;;;4.10;1.20;;;;;;;19.40;65.38;101298.97;6010378;28;20038;-64
2022/07/13 04:43:01;;;;;;;1.70;1.00;;;;;;;19.45;65.26;101296.53;5993927;28;20034;-67
2022/07/13 04:45:57;;;;;;;6.67;1.40;;;;;;;19.47;66.07;101292.63;6001358;28;20050;-68
2022/07/13 04:48:53;;;;;;;3.42;1.10;;;;;;;19.44;65.85;101292.16;5991829;28;20146;-68
2022/07/13 04:51:49;;;;;;;1.65;1.20;;;;;;;19.59;65.22;101282.22;6004075;28;20066;-65
2022/07/13 04:54:44;;;;;;;3.35;1.23;;;;;;;19.74;64.67;101280.28;6004781;28;20039;-67
2022/07/13 04:57:39;;;;;;;1.97;1.20;;;;;;;19.77;64.73;101274.53;6005419;28;20046;-67
2022/07/13 05:00:35;;;;;;;4.43;1.30;;;;;;;20.03;63.51;101269.38;6002241;28;20479;-66
2022/07/13 05:03:30;;;;;;;2.30;1.30;;;;;;;20.08;63.58;101266.94;6002320;28;20031;-65
2022/07/13 05:06:25;;;;;;;4.43;1.10;;;;;;;20.03;63.42;101280.16;5994460;28;20035;-64
2022/07/13 05:09:21;;;;;;;2.17;1.27;;;;;;;20.21;62.89;101282.38;6000643;28;20086;-64
2022/07/13 05:12:17;;;;;;;1.98;1.30;;;;;;;20.13;62.80;101286.06;5998626;28;20334;-64
2022/07/13 05:15:12;;;;;;;3.43;1.20;;;;;;;20.25;63.16;101296.34;5999635;28;20093;-64
2022/07/13 05:18:07;;;;;;;2.10;1.10;;;;;;;20.30;62.60;101296.59;6003067;28;20117;-66
2022/07/13 05:21:03;;;;;;;1.88;1.20;;;;;;;20.34;62.42;101297.84;6000366;28;20045;-66
2022/07/13 05:23:58;;;;;;;2.20;1.50;;;;;;;20.42;62.24;101305.78;5996058;28;20670;-66
2022/07/13 05:26:53;;;;;;;2.50;1.50;;;;;;;20.52;62.08;101301.72;5997449;28;20038;-66
2022/07/13 05:29:50;;;;;;;3.80;1.40;;;;;;;20.63;62.11;101313.81;6004184;28;20092;-65
2022/07/13 05:32:45;;;;;;;2.53;1.30;;;;;;;20.55;61.80;101301.31;6000628;28;20042;-66
2022/07/13 05:35:40;;;;;;;1.97;1.40;;;;;;;20.61;62.30;101305.09;5996131;28;20065;-66
2022/07/13 05:38:36;;;;;;;2.50;1.40;;;;;;;20.84;61.77;101289.50;5993092;28;20030;-65
2022/07/13 05:41:32;;;;;;;1.98;1.20;;;;;;;20.99;61.01;101279.41;6001625;28;20034;-66
2022/07/13 05:44:28;;;;;;;2.38;1.27;;;;;;;21.18;60.45;101294.88;5995188;28;20042;-64
2022/07/13 05:47:23;;;;;;;3.78;1.13;;;;;;;21.19;60.47;101271.44;5991030;28;20125;-65
2022/07/13 05:50:19;;;;;;;1.87;1.10;;;;;;;21.20;61.04;101268.53;5996397;28;20542;-67
2022/07/13 05:53:14;;;;;;;3.27;1.13;;;;;;;21.20;60.57;101273.94;5988962;28;20031;-65
2022/07/13 05:56:10;;;;;;;4.38;1.33;;;;;;;21.29;59.50;101250.31;5996475;28;20038;-65
2022/07/13 05:59:05;;;;;;;3.15;1.40;;;;;;;21.52;58.58;101248.09;5995239;28;20035;-65
2022/07/13 06:02:00;;;;;;;2.10;1.20;;;;;;;21.58;58.47;101241.06;5986412;28;20047;-66
2022/07/13 06:04:56;;;;;;;2.03;1.10;;;;;;;21.86;57.71;101249.78;5998946;28;20023;-68
2022/07/13 06:07:51;;;;;;;4.23;1.33;;;;;;;21.73;57.68;101252.50;5993601;28;20043;-66
2022/07/13 06:10:46;;;;;;;2.50;1.30;;;;;;;21.78;58.32;101268.91;5991064;28;20097;-66
2022/07/13 06:13:42;;;;;;;4.37;1.20;;;;;;;21.86;58.19;101271.41;6000767;28;20511;-66
2022/07/13 06:16:37;;;;;;;1.53;1.20;;;;;;;22.10;58.11;101270.81;5980468;28;20112;-66
2022/07/13 06:19:33;;;;;;;2.20;1.10;;;;;;;22.29;58.01;101270.00;5996310;28;20296;-67
2022/07/13 06:22:28;;;;;;;1.98;1.05;;;;;;;22.64;56.70;101261.69;5999685;28;20751;-66
2022/07/13 06:25:24;;;;;;;2.05;1.20;;;;;;;22.67;56.44;101269.34;6003094;28;20045;-67
2022/07/13 06:28:19;;;;;;;1.90;1.40;;;;;;;22.71;55.61;101260.63;5995017;28;20081;-68
2022/07/13 06:31:14;;;;;;;2.77;1.30;;;;;;;22.79;55.12;101256.84;6006031;28;20363;-66
2022/07/13 06:34:09;;;;;;;3.20;1.70;;;;;;;22.95;56.23;101259.91;6006818;28;20043;-67
2022/07/13 06:37:06;;;;;;;2.00;1.20;;;;;;;22.99;55.28;101258.44;5992220;28;20118;-66
2022/07/13 06:40:02;;;;;;;3.15;1.20;;;;;;;22.96;55.72;101255.34;5999573;28;20435;-66
2022/07/13 06:42:57;;;;;;;3.78;1.80;;;;;;;23.18;54.79;101253.16;6002937;28;20046;-68
2022/07/13 06:45:52;;;;;;;2.83;1.23;;;;;;;23.49;53.91;101245.94;6001560;28;20537;-65
2022/07/13 06:48:48;;;;;;;3.37;1.43;;;;;;;23.99;52.43;101249.56;5998659;28;20039;-65
2022/07/13 06:51:43;;;;;;;2.07;1.30;;;;;;;23.63;52.92;101247.53;5992181;28;20027;-67
2022/07/13 06:54:38;;;;;;;5.43;1.63;;;;;;;23.77;52.53;101242.00;6001282;28;20089;-65
2022/07/13 06:57:34;;;;;;;2.57;1.27;;;;;;;24.35;51.57;101229.84;5994580;28;20282;-68
2022/07/13 07:00:29;;;;;;;4.88;1.48;;;;;;;25.11;48.33;101232.19;5998576;28;20478;-65
2022/07/13 07:03:25;;;;;;;3.53;1.60;;;;;;;24.71;48.59;101227.19;6001871;28;20054;-66
2022/07/13 07:06:20;;;;;;;4.82;1.80;;;;;;;24.88;48.87;101226.59;6001954;28;20073;-65
2022/07/13 07:09:15;;;;;;;3.50;1.43;;;;;;;25.10;48.91;101215.06;6000586;28;20038;-66
2022/07/13 07:12:11;;;;;;;3.47;1.60;;;;;;;25.34;47.90;101218.69;6001813;28;20286;-68
2022/07/13 07:15:07;;;;;;;6.33;1.63;;;;;;;25.30;47.15;101220.22;5990604;28;20043;-65
2022/07/13 07:18:03;;;;;;;4.70;1.52;;;;;;;25.38;46.85;101215.28;5998854;28;20293;-68
2022/07/13 07:21:00;;;;;;;3.72;1.70;;;;;;;25.39;46.55;101213.38;6000430;28;20046;-65
2022/07/13 07:23:55;;;;;;;3.47;1.77;;;;;;;25.40;46.38;101210.47;6001034;28;20053;-63
2022/07/13 07:26:51;;;;;;;3.67;1.50;;;;;;;25.29;47.17;101218.56;6001727;28;20039;-64
2022/07/13 07:29:46;;;;;;;3.22;1.30;;;;;;;25.36;46.93;101216.56;6001407;28;20446;-64
2022/07/13 07:32:41;;;;;;;4.57;1.57;;;;;;;25.54;46.72;101213.00;6001185;28;20070;-64
2022/07/13 07:35:37;;;;;;;2.80;1.50;;;;;;;25.68;44.64;101215.31;5992087;28;20043;-63
2022/07/13 07:38:32;;;;;;;2.63;1.50;;;;;;;25.59;43.58;101205.81;6000717;28;20538;-66
2022/07/13 07:41:27;;;;;;;2.30;1.45;;;;;;;25.49;42.68;101196.59;6000345;28;20490;-65
2022/07/13 07:44:23;;;;;;;2.30;1.50;;;;;;;25.79;44.62;101200.06;5987550;28;20050;-65
2022/07/13 07:47:22;;;;;;;4.78;1.73;;;;;;;26.00;43.53;101203.06;6000087;28;20031;-65
2022/07/13 07:50:17;;;;;;;3.33;1.58;;;;;;;26.49;43.11;101200.94;6000522;28;20309;-65
2022/07/13 07:53:13;;;;;;;2.17;1.40;;;;;;;26.68;42.08;101193.44;6000118;28;20093;-65
2022/07/13 07:56:08;;;;;;;4.18;1.63;;;;;;;26.19;41.46;101194.81;6000475;28;20294;-65
2022/07/13 07:59:03;;;;;;;3.40;1.52;;;;;;;26.18;42.68;101191.25;6002339;28;20030;-66
2022/07/13 08:01:59;;;;;;;2.65;1.50;;;;;;;26.08;41.29;101187.44;5992527;28;20051;-65
2022/07/13 08:04:54;;;;;;;3.10;1.65;;;;;;;26.38;41.55;101183.56;6000465;28;20038;-64
2022/07/13 08:07:49;;;;;;;3.13;1.33;;;;;;;26.69;41.89;101190.47;5995417;28;20043;-64
2022/07/13 08:10:45;;;;;;;2.63;1.73;;;;;;;26.73;40.07;101178.06;6003084;28;20332;-64
2022/07/13 08:13:40;;;;;;;3.00;1.50;;;;;;;26.61;39.51;101174.53;6003282;28;20023;-65
2022/07/13 08:16:35;;;;;;;2.30;1.40;;;;;;;26.88;39.10;101186.56;5999795;28;21544;-64
2022/07/13 08:19:31;;;;;;;3.50;1.50;;;;;;;26.77;38.16;101172.97;5999652;28;20103;-65
2022/07/13 08:22:26;;;;;;;3.03;1.60;;;;;;;26.85;38.52;101183.50;6004312;28;20155;-67
2022/07/13 08:25:22;;;;;;;2.63;1.63;;;;;;;27.11;38.94;101178.31;6006163;28;20030;-66
2022/07/13 08:28:17;;;;;;;3.20;1.63;;;;;;;27.15;37.01;101165.84;6002021;28;20034;-65
2022/07/13 08:31:13;;;;;;;1.90;1.30;;;;;;;27.33;38.09;101169.44;5988984;28;20035;-65
2022/07/13 08:40:41;;;;;;;4.90;1.80;;;;;;;27.59;37.40;101166.09;5981330;28;20043;-67
2022/07/13 08:43:36;;;;;;;;;;;;;;;28.07;37.53;101171.84;5999463;28;20043;-64
2022/07/13 08:46:32;;;;;;;2.33;1.37;;;;;;;28.32;35.88;101168.63;6001402;28;20285;-66
2022/07/13 08:49:28;;;;;;;2.53;1.63;;;;;;;28.49;36.72;101169.41;6003408;28;20058;-65
2022/07/13 08:52:25;;;;;;;2.60;1.45;;;;;;;28.41;35.30;101161.69;5993199;28;20431;-65
2022/07/13 08:55:21;;;;;;;2.90;1.38;;;;;;;28.40;35.16;101164.66;6004680;28;20034;-64
2022/07/13 08:58:17;;;;;;;3.55;1.75;;;;;;;28.57;36.00;101159.97;5998241;28;20073;-66
2022/07/13 09:01:12;;;;;;;2.20;1.30;;;;;;;28.82;35.99;101149.38;6002191;28;20390;-66
2022/07/13 09:04:10;;;;;;;3.42;1.88;;;;;;;28.97;36.04;101143.28;5995743;28;20110;-65
2022/07/13 09:07:11;;;;;;;5.75;1.90;;;;;;;29.20;35.61;101148.44;5990624;28;20482;-65
2022/07/13 09:10:06;;;;;;;2.92;1.90;;;;;;;29.45;35.12;101141.34;5994468;28;20052;-65
2022/07/13 09:13:02;;;;;;;2.38;1.40;;;;;;;29.76;33.21;101141.59;5992270;28;20416;-65
2022/07/13 09:16:12;;;;;;;5.88;1.90;;;;;;;29.64;33.91;101130.81;5993986;28;20109;-66
2022/07/13 09:19:08;;;;;;;1.75;1.40;;;;;;;29.25;34.18;101140.31;5992769;28;20121;-66
2022/07/13 09:22:11;;;;;;;5.75;1.85;;;;;;;29.06;34.48;101136.25;6001062;28;20027;-65
2022/07/13 09:25:06;;;;;;;2.72;1.60;;;;;;;29.08;35.85;101137.66;5993858;28;20039;-66
2022/07/13 09:28:03;;;;;;;2.50;1.60;;;;;;;28.88;34.75;101134.72;5993172;28;20034;-66
2022/07/13 09:31:00;;;;;;;4.97;1.77;;;;;;;29.12;35.93;101133.31;5991517;28;20190;-65
2022/07/13 09:33:56;;;;;;;3.40;1.40;;;;;;;29.46;33.33;101142.16;5996985;28;20035;-66
2022/07/13 09:37:10;;;;;;;4.13;1.50;;;;;;;29.07;33.59;101138.75;5988603;28;20043;-66
2022/07/13 09:40:10;;;;;;;2.55;1.83;;;;;;;29.08;33.85;101134.91;6003997;28;20022;-67
2022/07/13 09:46:19;;;;;;;4.35;1.70;;;;;;;29.66;33.71;101125.91;6014776;28;20054;-65
2022/07/13 09:49:34;;;;;;;3.97;1.77;;;;;;;29.94;32.89;101130.25;6001488;28;20118;-67
2022/07/13 09:52:30;;;;;;;2.75;1.77;;;;;;;30.09;31.76;101131.16;5994575;28;20386;-67
2022/07/13 09:55:26;;;;;;;2.60;1.48;;;;;;;29.52;32.73;101125.53;6002672;28;20038;-66
2022/07/13 09:58:36;;;;;;;2.58;1.60;;;;;;;29.33;33.75;101121.53;6014483;28;20043;-66
2022/07/13 10:01:32;;;;;;;3.72;1.67;;;;;;;29.24;34.71;101125.84;5990667;28;20193;-65
2022/07/13 10:04:27;;;;;;;3.95;1.60;;;;;;;29.23;33.95;101120.63;5999843;28;20045;-66
2022/07/13 10:07:23;;;;;;;295.88;45.13;;;;;;;29.28;33.93;101117.94;6001981;28;20114;-65
2022/07/13 10:10:18;;;;;;;3.40;1.60;;;;;;;29.48;34.51;101112.66;6000677;28;20129;-66
2022/07/13 10:13:14;;;;;;;3.40;1.50;;;;;;;29.31;33.08;101101.84;6000841;28;20290;-66
2022/07/13 10:16:09;;;;;;;3.20;1.60;;;;;;;29.22;33.79;101097.94;5991668;28;20535;-66
2022/07/13 10:19:07;;;;;;;2.80;1.47;;;;;;;29.11;33.74;101096.16;5996144;28;20027;-65
2022/07/13 10:22:09;;;;;;;4.40;1.70;;;;;;;29.11;34.12;101106.28;6001561;28;20267;-65
2022/07/13 10:25:06;;;;;;;2.05;1.50;;;;;;;29.08;33.78;101096.66;6016626;28;20027;-67
2022/07/13 10:28:03;;;;;;;5.10;1.70;;;;;;;29.21;33.30;101103.63;5996241;28;20113;-68
2022/07/13 10:31:28;;;;;;;3.63;1.70;;;;;;;29.29;33.65;101104.03;5996282;28;20030;-66
2022/07/13 10:34:52;;;;;;;3.10;1.70;;;;;;;29.36;33.00;101106.53;5995889;28;20042;-65
2022/07/13 10:37:56;;;;;;;6.22;1.80;;;;;;;29.39;33.51;101106.00;6001312;28;20462;-67
2022/07/13 10:41:21;;;;;;;2.38;1.70;;;;;;;29.27;33.57;101105.38;5998328;28;20050;-66
2022/07/13 10:44:38;;;;;;;4.90;1.60;;;;;;;28.99;34.23;101090.03;5996341;28;20034;-66
2022/07/13 10:47:46;;;;;;;3.13;1.73;;;;;;;28.90;33.25;101086.94;5997195;28;20134;-67
2022/07/13 10:50:45;;;;;;;2.75;1.75;;;;;;;28.91;34.38;101085.03;6001402;28;20125;-66
2022/07/13 10:53:43;;;;;;;3.50;1.65;;;;;;;29.16;34.18;101082.53;6002534;28;20093;-65
2022/07/13 10:57:11;;;;;;;3.15;1.70;;;;;;;29.43;33.85;101077.88;6001009;28;20034;-64
2022/07/13 11:00:18;;;;;;;3.33;1.70;;;;;;;29.14;33.47;101067.47;6000204;28;20109;-65
2022/07/13 11:03:31;;;;;;;6.35;1.88;;;;;;;30.18;33.61;101062.25;6001768;28;20447;-65
2022/07/13 11:06:28;;;;;;;2.60;1.60;;;;;;;30.92;31.78;101049.09;6002373;28;20109;-65
2022/07/13 11:09:24;;;;;;;4.78;1.80;;;;;;;31.43;30.66;101048.00;5991144;28;20081;-66
2022/07/13 11:12:23;;;;;;;2.53;1.60;;;;;;;31.20;30.46;101054.06;5999708;28;20039;-66
2022/07/13 11:15:19;;;;;;;3.92;1.92;;;;;;;30.80;31.44;101051.22;5990317;28;20034;-66
2022/07/13 11:18:20;;;;;;;3.08;1.60;;;;;;;30.20;32.53;101052.66;6005229;28;20035;-65
2022/07/13 11:21:18;;;;;;;4.07;2.05;;;;;;;29.97;32.89;101050.38;6000870;28;20071;-65
2022/07/13 11:27:41;;;;;;;4.78;1.77;;;;;;;30.20;33.37;101044.47;6000140;28;20070;-66
2022/07/13 11:30:42;;;;;;;2.67;1.63;;;;;;;31.11;32.28;101031.84;6000290;28;20494;-67
2022/07/13 11:33:38;;;;;;;2.83;1.60;;;;;;;32.07;30.52;101025.41;6015448;28;20062;-67
2022/07/13 11:36:33;;;;;;;2.27;1.67;;;;;;;32.18;30.01;101030.56;5998041;28;20026;-67
2022/07/13 11:39:34;;;;;;;4.88;1.70;;;;;;;32.67;31.04;101019.59;5998366;28;20078;-67
2022/07/13 11:42:29;;;;;;;4.82;1.48;;;;;;;32.78;29.66;101009.38;6005170;28;20031;-66
2022/07/13 11:45:26;;;;;;;2.90;1.80;;;;;;;32.40;29.60;101010.97;6009717;28;20039;-67
2022/07/13 11:48:24;;;;;;;4.40;1.75;;;;;;;32.42;29.21;101016.19;6005240;28;20382;-68
2022/07/13 11:51:19;;;;;;;4.70;1.50;;;;;;;32.49;29.91;101002.94;6014202;28;20038;-67
2022/07/13 11:54:17;;;;;;;3.47;1.50;;;;;;;32.76;29.32;101006.91;6006359;28;20022;-67
2022/07/13 11:57:18;;;;;;;4.40;1.50;;;;;;;32.82;28.97;101005.78;6017566;28;20024;-68
2022/07/13 12:00:13;;;;;;;6.97;1.60;;;;;;;33.09;29.50;100998.97;6005755;28;20114;-66
2022/07/13 12:03:10;;;;;;;3.33;1.60;;;;;;;33.05;29.17;100997.91;6006590;28;20052;-67
2022/07/13 12:06:10;;;;;;;6.35;1.77;;;;;;;32.85;29.29;100983.22;6021400;28;20499;-66
2022/07/13 12:09:16;;;;;;;2.70;1.38;;;;;;;32.54;30.16;100992.78;6001508;28;20089;-65
2022/07/13 12:12:14;;;;;;;4.50;1.45;;;;;;;32.51;30.41;100992.50;6005587;28;20042;-64
2022/07/13 12:15:10;;;;;;;5.78;1.52;;;;;;;33.08;30.72;100986.34;6005795;28;20109;-64
2022/07/13 12:18:05;;;;;;;7.28;1.70;;;;;;;32.27;30.80;100973.13;6006060;28;20034;-63
2022/07/13 12:21:01;;;;;;;6.73;1.80;;;;;;;31.45;31.68;100969.00;6002630;28;20478;-63
2022/07/13 12:23:58;;;;;;;3.17;1.55;;;;;;;31.68;32.04;100973.94;6005297;28;20271;-64
2022/07/13 12:26:53;;;;;;;3.10;1.60;;;;;;;32.15;31.43;100967.19;5994491;28;20497;-67
2022/07/13 12:29:49;;;;;;;2.83;1.63;;;;;;;31.58;32.58;100978.63;6000935;28;20038;-66
2022/07/13 12:33:01;;;;;;;5.00;1.50;;;;;;;31.44;32.05;100930.91;6011029;28;20035;-67
2022/07/13 12:36:04;;;;;;;3.78;1.80;;;;;;;30.99;33.77;100978.41;5992165;28;20070;-64
2022/07/13 12:39:02;;;;;;;7.50;1.92;;;;;;;30.78;33.99;100968.50;5986421;28;20035;-65
2022/07/13 12:41:57;;;;;;;5.10;1.70;;;;;;;30.72;34.83;100953.16;5996295;28;20031;-64
2022/07/13 12:44:53;;;;;;;4.73;2.17;;;;;;;31.20;33.47;100961.66;5998126;28;20042;-65
2022/07/13 12:47:49;;;;;;;6.57;1.80;;;;;;;31.54;33.78;100961.91;5998341;28;20031;-64
2022/07/13 12:51:23;;;;;;;3.50;1.80;;;;;;;31.43;33.05;100957.50;5995799;28;20499;-65
2022/07/13 12:54:57;;;;;;;4.43;1.92;;;;;;;32.12;33.31;100951.28;6044567;28;20046;-65
2022/07/13 12:57:52;;;;;;;7.95;1.98;;;;;;;33.07;31.28;100943.47;6038730;28;20069;-65
2022/07/13 13:00:48;;;;;;;3.60;1.63;;;;;;;33.32;29.87;100923.97;5993922;28;20034;-65
2022/07/13 13:03:43;;;;;;;3.13;1.47;;;;;;;32.31;30.44;100933.88;5998680;28;20443;-66
2022/07/13 13:06:41;;;;;;;4.88;1.65;;;;;;;31.32;32.14;100941.34;5986218;28;20038;-65
2022/07/13 13:09:36;;;;;;;5.10;2.10;;;;;;;30.76;33.64;100924.13;5995386;28;20034;-65
2022/07/13 13:12:32;;;;;;;5.07;1.60;;;;;;;30.47;33.55;100918.34;5998298;28;20027;-65
2022/07/13 13:15:27;;;;;;;6.90;2.00;;;;;;;30.15;33.96;100925.94;5992263;28;20278;-65
2022/07/13 13:18:23;;;;;;;3.90;1.97;;;;;;;30.09;35.81;100925.94;5999939;28;20053;-64
2022/07/13 13:21:18;;;;;;;2.60;1.77;;;;;;;29.89;35.39;100927.78;6001562;28;20270;-65
2022/07/13 13:24:13;;;;;;;2.97;1.63;;;;;;;29.73;35.77;100931.53;6003951;28;20125;-65
2022/07/13 13:27:09;;;;;;;3.37;1.70;;;;;;;29.46;35.54;100926.22;6002563;28;20078;-66
2022/07/13 13:33:19;;;;;;;4.63;1.98;;;;;;;29.29;36.13;100928.28;5991269;28;20031;-65
2022/07/13 13:36:14;;;;;;;2.33;1.70;;;;;;;29.47;36.28;100925.09;5992191;28;20035;-66
2022/07/13 13:39:10;;;;;;;5.77;2.10;;;;;;;29.71;35.94;100925.47;5984241;28;20050;-66
2022/07/13 13:42:05;;;;;;;4.83;2.03;;;;;;;29.50;36.09;100914.47;5993083;28;20499;-65
2022/07/13 13:45:00;;;;;;;7.00;1.97;;;;;;;29.28;36.52;100927.47;5996459;28;20275;-66
2022/07/13 13:47:55;;;;;;;7.03;1.90;;;;;;;28.97;37.39;100922.88;6002325;28;20505;-67
2022/07/13 13:50:51;;;;;;;5.03;2.10;;;;;;;28.84;38.49;100931.47;5989281;28;20035;-67
2022/07/13 13:53:46;;;;;;;4.03;2.13;;;;;;;28.71;38.23;100929.19;5990189;28;20045;-66
2022/07/13 13:56:42;;;;;;;4.22;1.80;;;;;;;28.80;38.70;100924.91;5999374;28;20457;-67
2022/07/13 13:59:37;;;;;;;4.67;2.27;;;;;;;29.18;38.11;100915.63;5992913;28;20085;-67